createdAt,value
2017-11-11T00:00:17.565Z,0
2017-11-11T00:01:17.913Z,0
2017-11-11T00:02:17.927Z,0
2017-11-11T00:03:17.961Z,0
2017-11-11T00:04:17.965Z,0
2017-11-11T00:05:17.978Z,0
2017-11-11T00:06:17.995Z,0
2017-11-11T00:07:18.051Z,0
2017-11-11T00:08:17.705Z,0
2017-11-11T00:09:18.040Z,0
2017-11-11T00:10:18.045Z,0
2017-11-11T00:11:18.063Z,0
2017-11-11T00:12:18.085Z,0
2017-11-11T00:13:18.428Z,0
2017-11-11T00:14:18.107Z,0
2017-11-11T00:15:18.448Z,0
2017-11-11T00:16:18.474Z,0
2017-11-11T00:17:17.837Z,0
2017-11-11T00:18:18.176Z,0
2017-11-11T00:19:17.858Z,0
2017-11-11T00:20:18.549Z,0
2017-11-11T00:21:18.238Z,0
2017-11-11T00:22:18.282Z,0
2017-11-11T00:23:18.592Z,0
2017-11-11T00:24:17.939Z,0
2017-11-11T00:25:18.287Z,0
2017-11-11T00:26:17.644Z,0
2017-11-11T00:27:18.643Z,0
2017-11-11T00:28:18.652Z,0
2017-11-11T00:29:18.012Z,0
2017-11-11T00:30:18.696Z,0
2017-11-11T00:31:18.386Z,0
2017-11-11T00:32:18.403Z,0
2017-11-11T00:33:18.077Z,0
2017-11-11T00:34:18.413Z,0
2017-11-11T00:35:18.776Z,0
2017-11-11T00:36:18.149Z,0
2017-11-11T00:37:18.190Z,0
2017-11-11T00:38:18.476Z,0
2017-11-11T00:39:18.817Z,0
2017-11-11T00:40:18.836Z,0
2017-11-11T00:41:18.545Z,0
2017-11-11T00:42:18.215Z,0
2017-11-11T00:43:18.554Z,0
2017-11-11T00:44:18.891Z,0
2017-11-11T00:45:18.581Z,0
2017-11-11T00:46:18.610Z,0
2017-11-11T00:47:18.947Z,0
2017-11-11T00:48:18.639Z,0
2017-11-11T00:49:18.660Z,0
2017-11-11T00:50:18.673Z,0
2017-11-11T00:51:18.701Z,0
2017-11-11T00:52:18.698Z,0
2017-11-11T00:53:19.046Z,0
2017-11-11T00:54:18.403Z,0
2017-11-11T00:55:19.072Z,0
2017-11-11T00:56:19.082Z,0
2017-11-11T00:57:18.764Z,0
2017-11-11T00:58:19.108Z,0
2017-11-11T00:59:18.805Z,0
2017-11-11T01:00:19.149Z,0
2017-11-11T01:01:18.510Z,0
2017-11-11T01:02:18.873Z,0
2017-11-11T01:03:19.191Z,0
2017-11-11T01:04:19.199Z,0
2017-11-11T01:05:18.901Z,0
2017-11-11T01:06:18.930Z,0
2017-11-11T01:07:18.680Z,0
2017-11-11T01:08:18.625Z,0
2017-11-11T01:09:18.955Z,0
2017-11-11T01:10:18.999Z,0
2017-11-11T01:11:19.316Z,0
2017-11-11T01:12:18.679Z,0
2017-11-11T01:13:19.023Z,0
2017-11-11T01:14:19.043Z,0
2017-11-11T01:15:18.729Z,0
2017-11-11T01:16:19.392Z,0
2017-11-11T01:17:19.406Z,0
2017-11-11T01:18:19.093Z,0
2017-11-11T01:19:19.132Z,0
2017-11-11T01:20:19.652Z,0
2017-11-11T01:21:19.473Z,0
2017-11-11T01:22:19.159Z,0
2017-11-11T01:23:19.495Z,0
2017-11-11T01:24:18.878Z,0
2017-11-11T01:25:19.261Z,0
2017-11-11T01:26:19.539Z,0
2017-11-11T01:27:19.573Z,0
2017-11-11T01:28:19.249Z,0
2017-11-11T01:29:19.268Z,0
2017-11-11T01:30:19.607Z,0
2017-11-11T01:31:18.979Z,0
2017-11-11T01:32:18.991Z,0
2017-11-11T01:33:19.668Z,0
2017-11-11T01:34:19.360Z,0
2017-11-11T01:35:19.362Z,0
2017-11-11T01:36:19.713Z,0
2017-11-11T01:37:19.410Z,0
2017-11-11T01:38:19.104Z,0
2017-11-11T01:39:19.433Z,0
2017-11-11T01:40:19.439Z,0
2017-11-11T01:41:19.781Z,0
2017-11-11T01:42:19.147Z,0
2017-11-11T01:43:19.492Z,0
2017-11-11T01:44:19.830Z,0
2017-11-11T01:45:19.846Z,0
2017-11-11T01:46:19.552Z,0
2017-11-11T01:47:19.905Z,0
2017-11-11T01:48:19.887Z,0
2017-11-11T01:49:19.584Z,0
2017-11-11T01:50:19.280Z,0
2017-11-11T01:51:19.618Z,0
2017-11-11T01:52:19.633Z,0
2017-11-11T01:53:19.652Z,0
2017-11-11T01:54:19.988Z,0
2017-11-11T01:55:20.062Z,0
2017-11-11T01:56:20.031Z,0
2017-11-11T01:57:19.717Z,0
2017-11-11T01:58:19.730Z,0
2017-11-11T01:59:19.752Z,0
2017-11-11T02:00:20.136Z,0
2017-11-11T02:01:19.129Z,0
2017-11-11T02:02:20.112Z,0
2017-11-11T02:03:20.168Z,0
2017-11-11T02:04:19.506Z,0
2017-11-11T02:05:19.836Z,0
2017-11-11T02:06:20.200Z,0
2017-11-11T02:07:19.866Z,0
2017-11-11T02:08:19.887Z,0
2017-11-11T02:09:19.905Z,0
2017-11-11T02:10:19.925Z,0
2017-11-11T02:11:19.945Z,0
2017-11-11T02:12:19.948Z,0
2017-11-11T02:13:20.003Z,0
2017-11-11T02:14:20.300Z,0
2017-11-11T02:15:20.369Z,0
2017-11-11T02:16:20.005Z,0
2017-11-11T02:17:20.029Z,0
2017-11-11T02:18:20.055Z,0
2017-11-11T02:19:20.383Z,0
2017-11-11T02:20:20.421Z,0
2017-11-11T02:21:20.088Z,0
2017-11-11T02:22:20.444Z,0
2017-11-11T02:23:20.124Z,0
2017-11-11T02:24:19.813Z,0
2017-11-11T02:25:19.828Z,0
2017-11-11T02:26:20.488Z,0
2017-11-11T02:27:19.889Z,0
2017-11-11T02:28:20.210Z,0
2017-11-11T02:29:20.568Z,0
2017-11-11T02:30:20.573Z,0
2017-11-11T02:31:20.589Z,0
2017-11-11T02:32:20.259Z,0
2017-11-11T02:33:20.618Z,0
2017-11-11T02:34:20.618Z,0
2017-11-11T02:35:20.321Z,0
2017-11-11T02:36:20.649Z,0
2017-11-11T02:37:20.339Z,0
2017-11-11T02:38:20.731Z,0
2017-11-11T02:39:20.724Z,0
2017-11-11T02:40:20.707Z,0
2017-11-11T02:41:20.729Z,0
2017-11-11T02:42:20.734Z,0
2017-11-11T02:43:20.434Z,0
2017-11-11T02:44:20.461Z,0
2017-11-11T02:45:20.151Z,0
2017-11-11T02:46:20.499Z,0
2017-11-11T02:47:20.492Z,0
2017-11-11T02:48:20.515Z,0
2017-11-11T02:49:20.575Z,0
2017-11-11T02:50:20.897Z,0
2017-11-11T02:51:20.556Z,0
2017-11-11T02:52:20.605Z,0
2017-11-11T02:53:20.908Z,0
2017-11-11T02:54:20.924Z,0
2017-11-11T02:55:20.946Z,0
2017-11-11T02:56:20.990Z,0
2017-11-11T02:57:20.645Z,0
2017-11-11T02:58:20.361Z,0
2017-11-11T02:59:21.013Z,0
2017-11-11T03:00:20.043Z,0
2017-11-11T03:01:20.710Z,0
2017-11-11T03:02:21.040Z,0
2017-11-11T03:03:20.737Z,0
2017-11-11T03:04:20.751Z,0
2017-11-11T03:05:20.494Z,0
2017-11-11T03:06:20.787Z,0
2017-11-11T03:07:20.154Z,0
2017-11-11T03:08:21.143Z,0
2017-11-11T03:09:20.831Z,0
2017-11-11T03:10:20.833Z,0
2017-11-11T03:11:20.860Z,0
2017-11-11T03:12:20.872Z,0
2017-11-11T03:13:20.240Z,0
2017-11-11T03:14:20.916Z,0
2017-11-11T03:15:20.923Z,0
2017-11-11T03:16:20.941Z,0
2017-11-11T03:17:21.269Z,0
2017-11-11T03:18:20.968Z,0
2017-11-11T03:19:21.322Z,0
2017-11-11T03:20:21.050Z,0
2017-11-11T03:21:21.013Z,0
2017-11-11T03:22:21.350Z,0
2017-11-11T03:23:21.366Z,0
2017-11-11T03:24:21.057Z,0
2017-11-11T03:25:21.390Z,0
2017-11-11T03:26:20.770Z,0
2017-11-11T03:27:20.786Z,0
2017-11-11T03:28:21.119Z,0
2017-11-11T03:29:21.137Z,0
2017-11-11T03:30:21.176Z,0
2017-11-11T03:31:21.196Z,0
2017-11-11T03:32:21.504Z,0
2017-11-11T03:33:21.209Z,0
2017-11-11T03:34:20.883Z,0
2017-11-11T03:35:20.624Z,0
2017-11-11T03:36:21.571Z,0
2017-11-11T03:37:21.261Z,0
2017-11-11T03:38:20.619Z,0
2017-11-11T03:39:20.976Z,0
2017-11-11T03:40:21.293Z,0
2017-11-11T03:41:21.332Z,0
2017-11-11T03:42:21.659Z,0
2017-11-11T03:43:21.024Z,0
2017-11-11T03:44:21.370Z,0
2017-11-11T03:45:21.067Z,0
2017-11-11T03:46:21.716Z,0
2017-11-11T03:47:21.739Z,0
2017-11-11T03:48:21.420Z,0
2017-11-11T03:49:21.438Z,0
2017-11-11T03:50:21.448Z,0
2017-11-11T03:51:21.795Z,0
2017-11-11T03:52:21.157Z,0
2017-11-11T03:53:21.492Z,0
2017-11-11T03:54:21.834Z,0
2017-11-11T03:55:21.202Z,0
2017-11-11T03:56:21.563Z,0
2017-11-11T03:57:21.555Z,0
2017-11-11T03:58:21.253Z,0
2017-11-11T03:59:21.919Z,0
2017-11-11T04:00:21.273Z,0
2017-11-11T04:01:21.614Z,0
2017-11-11T04:02:21.632Z,0
2017-11-11T04:03:21.655Z,0
2017-11-11T04:04:21.989Z,0
2017-11-11T04:05:21.877Z,0
2017-11-11T04:06:21.363Z,0
2017-11-11T04:07:21.437Z,0
2017-11-11T04:08:21.721Z,0
2017-11-11T04:09:21.088Z,0
2017-11-11T04:10:21.756Z,0
2017-11-11T04:11:22.090Z,0
2017-11-11T04:12:21.785Z,0
2017-11-11T04:13:22.137Z,0
2017-11-11T04:14:21.485Z,0
2017-11-11T04:15:21.842Z,0
2017-11-11T04:16:22.172Z,0
2017-11-11T04:17:21.862Z,0
2017-11-11T04:18:21.545Z,0
2017-11-11T04:19:21.887Z,0
2017-11-11T04:20:21.930Z,0
2017-11-11T04:21:22.235Z,0
2017-11-11T04:22:21.946Z,0
2017-11-11T04:23:21.943Z,0
2017-11-11T04:24:21.632Z,0
2017-11-11T04:25:22.035Z,0
2017-11-11T04:26:21.984Z,0
2017-11-11T04:27:21.999Z,0
2017-11-11T04:28:22.346Z,0
2017-11-11T04:29:22.359Z,0
2017-11-11T04:30:21.724Z,0
2017-11-11T04:31:22.075Z,0
2017-11-11T04:32:22.078Z,0
2017-11-11T04:33:22.416Z,0
2017-11-11T04:34:22.106Z,0
2017-11-11T04:35:22.109Z,0
2017-11-11T04:36:21.812Z,0
2017-11-11T04:37:21.824Z,0
2017-11-11T04:38:22.161Z,0
2017-11-11T04:39:22.182Z,0
2017-11-11T04:40:22.578Z,0
2017-11-11T04:41:22.202Z,0
2017-11-11T04:42:22.220Z,0
2017-11-11T04:43:22.243Z,0
2017-11-11T04:44:22.571Z,0
2017-11-11T04:45:22.257Z,0
2017-11-11T04:46:22.276Z,0
2017-11-11T04:47:22.612Z,0
2017-11-11T04:48:21.976Z,0
2017-11-11T04:49:22.647Z,0
2017-11-11T04:50:22.357Z,0
2017-11-11T04:51:22.046Z,0
2017-11-11T04:52:22.692Z,0
2017-11-11T04:53:22.056Z,0
2017-11-11T04:54:22.390Z,0
2017-11-11T04:55:22.742Z,0
2017-11-11T04:56:22.758Z,0
2017-11-11T04:57:22.492Z,0
2017-11-11T04:58:22.497Z,0
2017-11-11T04:59:22.473Z,0
2017-11-11T05:00:22.479Z,0
2017-11-11T05:01:22.816Z,0
2017-11-11T05:02:22.501Z,0
2017-11-11T05:03:22.523Z,0
2017-11-11T05:04:22.244Z,0
2017-11-11T05:05:22.876Z,0
2017-11-11T05:06:22.562Z,0
2017-11-11T05:07:22.581Z,0
2017-11-11T05:08:22.597Z,0
2017-11-11T05:09:22.603Z,0
2017-11-11T05:10:22.631Z,0
2017-11-11T05:11:22.958Z,0
2017-11-11T05:12:22.995Z,0
2017-11-11T05:13:22.665Z,0
2017-11-11T05:14:23.057Z,0
2017-11-11T05:15:23.020Z,0
2017-11-11T05:16:23.048Z,0
2017-11-11T05:17:22.739Z,0
2017-11-11T05:18:22.734Z,0
2017-11-11T05:19:22.443Z,0
2017-11-11T05:20:23.089Z,0
2017-11-11T05:21:22.776Z,0
2017-11-11T05:22:22.471Z,0
2017-11-11T05:23:22.812Z,0
2017-11-11T05:24:22.819Z,0
2017-11-11T05:25:22.832Z,0
2017-11-11T05:26:22.529Z,0
2017-11-11T05:27:23.192Z,0
2017-11-11T05:28:22.875Z,0
2017-11-11T05:29:22.566Z,0
2017-11-11T05:30:23.231Z,0
2017-11-11T05:31:23.237Z,0
2017-11-11T05:32:23.260Z,0
2017-11-11T05:33:22.951Z,0
2017-11-11T05:34:22.968Z,0
2017-11-11T05:35:22.652Z,0
2017-11-11T05:36:22.667Z,0
2017-11-11T05:37:23.005Z,0
2017-11-11T05:38:23.339Z,0
2017-11-11T05:39:22.709Z,0
2017-11-11T05:40:22.721Z,0
2017-11-11T05:41:22.734Z,0
2017-11-11T05:42:22.766Z,0
2017-11-11T05:43:23.110Z,0
2017-11-11T05:44:22.798Z,0
2017-11-11T05:45:23.131Z,0
2017-11-11T05:46:23.131Z,0
2017-11-11T05:47:23.192Z,0
2017-11-11T05:48:23.483Z,0
2017-11-11T05:49:23.170Z,0
2017-11-11T05:50:23.509Z,0
2017-11-11T05:51:23.567Z,0
2017-11-11T05:52:23.236Z,0
2017-11-11T05:53:23.230Z,0
2017-11-11T05:54:23.248Z,0
2017-11-11T05:55:23.268Z,0
2017-11-11T05:56:23.617Z,0
2017-11-11T05:57:23.627Z,0
2017-11-11T05:58:22.992Z,0
2017-11-11T05:59:23.648Z,0
2017-11-11T06:00:23.676Z,0
2017-11-11T06:01:23.678Z,0
2017-11-11T06:02:23.676Z,0
2017-11-11T06:03:23.385Z,0
2017-11-11T06:04:23.406Z,0
2017-11-11T06:05:23.093Z,0
2017-11-11T06:06:23.761Z,0
2017-11-11T06:07:23.441Z,0
2017-11-11T06:08:23.460Z,0
2017-11-11T06:09:23.792Z,0
2017-11-11T06:10:23.494Z,0
2017-11-11T06:11:23.492Z,0
2017-11-11T06:12:23.833Z,0
2017-11-11T06:13:23.542Z,0
2017-11-11T06:14:23.540Z,0
2017-11-11T06:15:23.883Z,0
2017-11-11T06:16:23.572Z,0
2017-11-11T06:17:23.641Z,0
2017-11-11T06:18:23.629Z,0
2017-11-11T06:19:23.632Z,0
2017-11-11T06:20:23.976Z,0
2017-11-11T06:21:23.335Z,0
2017-11-11T06:22:24.009Z,0
2017-11-11T06:23:23.689Z,0
2017-11-11T06:24:24.028Z,0
2017-11-11T06:25:23.714Z,0
2017-11-11T06:26:23.087Z,0
2017-11-11T06:27:24.066Z,0
2017-11-11T06:28:24.085Z,5
2017-11-11T06:29:24.102Z,5
2017-11-11T06:30:24.109Z,5
2017-11-11T06:31:24.127Z,5
2017-11-11T06:32:23.826Z,5
2017-11-11T06:33:23.856Z,10
2017-11-11T06:34:24.178Z,10
2017-11-11T06:35:24.261Z,10
2017-11-11T06:36:24.209Z,10
2017-11-11T06:37:23.586Z,10
2017-11-11T06:38:23.910Z,10
2017-11-11T06:39:24.253Z,10
2017-11-11T06:40:23.946Z,10
2017-11-11T06:41:23.961Z,10
2017-11-11T06:42:24.013Z,15
2017-11-11T06:43:24.401Z,15
2017-11-11T06:44:23.688Z,15
2017-11-11T06:45:24.365Z,15
2017-11-11T06:46:24.041Z,10
2017-11-11T06:47:24.054Z,10
2017-11-11T06:48:24.086Z,10
2017-11-11T06:49:24.093Z,15
2017-11-11T06:50:24.427Z,15
2017-11-11T06:51:24.174Z,15
2017-11-11T06:52:24.470Z,15
2017-11-11T06:53:24.141Z,15
2017-11-11T06:54:24.167Z,15
2017-11-11T06:55:24.212Z,15
2017-11-11T06:56:24.192Z,20
2017-11-11T06:57:24.524Z,20
2017-11-11T06:58:24.562Z,20
2017-11-11T06:59:24.575Z,20
2017-11-11T07:00:24.585Z,25
2017-11-11T07:01:24.259Z,25
2017-11-11T07:02:24.286Z,30
2017-11-11T07:03:24.309Z,30
2017-11-11T07:04:24.316Z,30
2017-11-11T07:05:24.655Z,35
2017-11-11T07:06:24.673Z,35
2017-11-11T07:07:24.137Z,40
2017-11-11T07:08:24.383Z,45
2017-11-11T07:09:24.720Z,50
2017-11-11T07:10:24.729Z,50
2017-11-11T07:11:24.425Z,55
2017-11-11T07:12:24.764Z,60
2017-11-11T07:13:24.143Z,60
2017-11-11T07:14:24.468Z,60
2017-11-11T07:15:24.807Z,60
2017-11-11T07:16:24.822Z,60
2017-11-11T07:17:24.837Z,60
2017-11-11T07:18:24.529Z,60
2017-11-11T07:19:24.557Z,60
2017-11-11T07:20:24.570Z,65
2017-11-11T07:21:24.581Z,65
2017-11-11T07:22:24.967Z,65
2017-11-11T07:23:24.930Z,65
2017-11-11T07:24:24.944Z,65
2017-11-11T07:25:24.321Z,70
2017-11-11T07:26:24.658Z,70
2017-11-11T07:27:24.994Z,70
2017-11-11T07:28:24.690Z,70
2017-11-11T07:29:24.696Z,70
2017-11-11T07:30:25.070Z,70
2017-11-11T07:31:25.075Z,70
2017-11-11T07:32:24.742Z,70
2017-11-11T07:33:24.767Z,70
2017-11-11T07:34:25.096Z,70
2017-11-11T07:35:24.468Z,75
2017-11-11T07:36:24.844Z,75
2017-11-11T07:37:25.162Z,75
2017-11-11T07:38:24.630Z,75
2017-11-11T07:39:25.187Z,80
2017-11-11T07:40:24.864Z,85
2017-11-11T07:41:24.895Z,85
2017-11-11T07:42:24.899Z,90
2017-11-11T07:43:24.933Z,95
2017-11-11T07:44:24.950Z,100
2017-11-11T07:45:25.269Z,105
2017-11-11T07:46:24.971Z,105
2017-11-11T07:47:24.989Z,105
2017-11-11T07:48:25.319Z,105
2017-11-11T07:49:25.340Z,100
2017-11-11T07:50:25.033Z,100
2017-11-11T07:51:25.040Z,100
2017-11-11T07:52:25.072Z,100
2017-11-11T07:53:25.451Z,100
2017-11-11T07:54:25.121Z,100
2017-11-11T07:55:25.128Z,100
2017-11-11T07:56:25.450Z,100
2017-11-11T07:57:25.469Z,105
2017-11-11T07:58:25.187Z,110
2017-11-11T07:59:24.845Z,110
2017-11-11T08:00:25.182Z,110
2017-11-11T08:01:25.203Z,110
2017-11-11T08:02:25.218Z,110
2017-11-11T08:03:25.224Z,110
2017-11-11T08:04:25.561Z,110
2017-11-11T08:05:25.264Z,110
2017-11-11T08:06:25.608Z,100
2017-11-11T08:07:25.297Z,95
2017-11-11T08:08:25.628Z,90
2017-11-11T08:09:25.397Z,90
2017-11-11T08:10:25.341Z,90
2017-11-11T08:11:25.720Z,85
2017-11-11T08:12:25.373Z,85
2017-11-11T08:13:25.403Z,85
2017-11-11T08:14:25.404Z,85
2017-11-11T08:15:25.740Z,85
2017-11-11T08:16:25.435Z,90
2017-11-11T08:17:25.125Z,95
2017-11-11T08:18:25.488Z,105
2017-11-11T08:19:25.829Z,110
2017-11-11T08:20:25.519Z,120
2017-11-11T08:21:25.532Z,125
2017-11-11T08:22:25.847Z,135
2017-11-11T08:23:25.229Z,135
2017-11-11T08:24:25.290Z,140
2017-11-11T08:25:25.254Z,140
2017-11-11T08:26:25.594Z,135
2017-11-11T08:27:25.949Z,135
2017-11-11T08:28:24.978Z,130
2017-11-11T08:29:25.642Z,130
2017-11-11T08:30:25.366Z,130
2017-11-11T08:31:25.676Z,125
2017-11-11T08:32:25.693Z,120
2017-11-11T08:33:26.038Z,115
2017-11-11T08:34:25.719Z,115
2017-11-11T08:35:26.066Z,110
2017-11-11T08:36:25.799Z,110
2017-11-11T08:37:25.447Z,110
2017-11-11T08:38:25.801Z,120
2017-11-11T08:39:26.188Z,130
2017-11-11T08:40:26.149Z,135
2017-11-11T08:41:26.167Z,135
2017-11-11T08:42:25.870Z,135
2017-11-11T08:43:25.554Z,140
2017-11-11T08:44:26.235Z,140
2017-11-11T08:45:25.926Z,145
2017-11-11T08:46:25.599Z,145
2017-11-11T08:47:26.288Z,150
2017-11-11T08:48:26.280Z,155
2017-11-11T08:49:26.319Z,155
2017-11-11T08:50:26.006Z,155
2017-11-11T08:51:25.677Z,150
2017-11-11T08:52:26.021Z,145
2017-11-11T08:53:26.363Z,140
2017-11-11T08:54:26.404Z,140
2017-11-11T08:55:25.739Z,145
2017-11-11T08:56:26.129Z,145
2017-11-11T08:57:26.118Z,150
2017-11-11T08:58:26.131Z,155
2017-11-11T08:59:26.150Z,160
2017-11-11T09:00:26.153Z,160
2017-11-11T09:01:26.517Z,165
2017-11-11T09:02:26.184Z,160
2017-11-11T09:03:26.201Z,150
2017-11-11T09:04:25.896Z,145
2017-11-11T09:05:26.233Z,145
2017-11-11T09:06:25.943Z,140
2017-11-11T09:07:26.596Z,135
2017-11-11T09:08:26.608Z,130
2017-11-11T09:09:26.619Z,135
2017-11-11T09:10:25.994Z,140
2017-11-11T09:11:26.727Z,150
2017-11-11T09:12:26.353Z,160
2017-11-11T09:13:26.039Z,165
2017-11-11T09:14:26.064Z,175
2017-11-11T09:15:26.396Z,175
2017-11-11T09:16:26.420Z,165
2017-11-11T09:17:26.108Z,145
2017-11-11T09:18:26.774Z,135
2017-11-11T09:19:26.473Z,130
2017-11-11T09:20:26.155Z,140
2017-11-11T09:21:26.177Z,145
2017-11-11T09:22:26.842Z,155
2017-11-11T09:23:26.208Z,165
2017-11-11T09:24:26.555Z,170
2017-11-11T09:25:26.580Z,160
2017-11-11T09:26:26.255Z,145
2017-11-11T09:27:26.598Z,135
2017-11-11T09:28:26.675Z,125
2017-11-11T09:29:26.635Z,130
2017-11-11T09:30:26.991Z,130
2017-11-11T09:31:26.351Z,125
2017-11-11T09:32:26.696Z,105
2017-11-11T09:33:26.405Z,90
2017-11-11T09:34:27.048Z,95
2017-11-11T09:35:26.751Z,110
2017-11-11T09:36:26.436Z,125
2017-11-11T09:37:26.780Z,135
2017-11-11T09:38:26.790Z,120
2017-11-11T09:39:26.842Z,105
2017-11-11T09:40:27.161Z,95
2017-11-11T09:41:26.833Z,90
2017-11-11T09:42:26.846Z,105
2017-11-11T09:43:26.878Z,120
2017-11-11T09:44:26.281Z,115
2017-11-11T09:45:26.899Z,115
2017-11-11T09:46:26.939Z,115
2017-11-11T09:47:26.934Z,105
2017-11-11T09:48:27.274Z,100
2017-11-11T09:49:27.325Z,100
2017-11-11T09:50:26.978Z,110
2017-11-11T09:51:26.995Z,115
2017-11-11T09:52:27.022Z,120
2017-11-11T09:53:27.351Z,115
2017-11-11T09:54:26.722Z,105
2017-11-11T09:55:27.057Z,110
2017-11-11T09:56:27.076Z,120
2017-11-11T09:57:27.094Z,120
2017-11-11T09:58:27.128Z,125
2017-11-11T09:59:27.170Z,130
2017-11-11T10:00:27.492Z,115
2017-11-11T10:01:27.158Z,100
2017-11-11T10:02:26.854Z,105
2017-11-11T10:03:26.867Z,100
2017-11-11T10:04:27.533Z,100
2017-11-11T10:05:27.545Z,100
2017-11-11T10:06:26.917Z,100
2017-11-11T10:07:27.584Z,110
2017-11-11T10:08:27.292Z,110
2017-11-11T10:09:27.602Z,95
2017-11-11T10:10:27.303Z,90
2017-11-11T10:11:27.347Z,90
2017-11-11T10:12:27.339Z,80
2017-11-11T10:13:27.678Z,80
2017-11-11T10:14:27.700Z,90
2017-11-11T10:15:27.376Z,95
2017-11-11T10:16:27.082Z,85
2017-11-11T10:17:27.426Z,80
2017-11-11T10:18:27.431Z,80
2017-11-11T10:19:27.498Z,70
2017-11-11T10:20:27.783Z,70
2017-11-11T10:21:27.796Z,70
2017-11-11T10:22:27.495Z,70
2017-11-11T10:23:27.840Z,70
2017-11-11T10:24:27.835Z,80
2017-11-11T10:25:27.548Z,80
2017-11-11T10:26:27.560Z,75
2017-11-11T10:27:27.582Z,75
2017-11-11T10:28:27.581Z,75
2017-11-11T10:29:27.925Z,80
2017-11-11T10:30:27.942Z,75
2017-11-11T10:31:27.641Z,65
2017-11-11T10:32:27.652Z,70
2017-11-11T10:33:27.681Z,80
2017-11-11T10:34:27.670Z,75
2017-11-11T10:35:27.698Z,70
2017-11-11T10:36:27.704Z,60
2017-11-11T10:37:27.394Z,55
2017-11-11T10:38:28.138Z,55
2017-11-11T10:39:28.074Z,55
2017-11-11T10:40:27.452Z,50
2017-11-11T10:41:27.788Z,55
2017-11-11T10:42:28.131Z,55
2017-11-11T10:43:27.815Z,50
2017-11-11T10:44:27.826Z,45
2017-11-11T10:45:28.204Z,45
2017-11-11T10:46:28.184Z,40
2017-11-11T10:47:27.882Z,40
2017-11-11T10:48:27.890Z,50
2017-11-11T10:49:28.254Z,55
2017-11-11T10:50:28.258Z,55
2017-11-11T10:51:28.279Z,60
2017-11-11T10:52:27.960Z,60
2017-11-11T10:53:27.709Z,60
2017-11-11T10:54:27.986Z,60
2017-11-11T10:55:27.351Z,55
2017-11-11T10:56:28.020Z,50
2017-11-11T10:57:27.701Z,50
2017-11-11T10:58:28.042Z,55
2017-11-11T10:59:28.391Z,60
2017-11-11T11:00:28.071Z,55
2017-11-11T11:01:27.458Z,60
2017-11-11T11:02:28.105Z,65
2017-11-11T11:03:27.470Z,65
2017-11-11T11:04:28.135Z,60
2017-11-11T11:05:28.158Z,60
2017-11-11T11:06:28.164Z,65
2017-11-11T11:07:28.512Z,55
2017-11-11T11:08:28.585Z,65
2017-11-11T11:09:28.538Z,65
2017-11-11T11:10:28.591Z,65
2017-11-11T11:11:28.601Z,60
2017-11-11T11:12:28.262Z,60
2017-11-11T11:13:27.629Z,65
2017-11-11T11:14:27.976Z,60
2017-11-11T11:15:27.685Z,65
2017-11-11T11:16:28.330Z,70
2017-11-11T11:17:28.343Z,60
2017-11-11T11:18:28.033Z,55
2017-11-11T11:19:28.709Z,60
2017-11-11T11:20:28.713Z,60
2017-11-11T11:21:28.727Z,55
2017-11-11T11:22:28.752Z,60
2017-11-11T11:23:28.158Z,70
2017-11-11T11:24:28.455Z,75
2017-11-11T11:25:28.800Z,85
2017-11-11T11:26:28.479Z,90
2017-11-11T11:27:28.494Z,85
2017-11-11T11:28:28.525Z,80
2017-11-11T11:29:28.217Z,75
2017-11-11T11:30:28.568Z,70
2017-11-11T11:31:28.559Z,75
2017-11-11T11:32:28.258Z,75
2017-11-11T11:33:28.618Z,70
2017-11-11T11:34:28.934Z,70
2017-11-11T11:35:28.293Z,75
2017-11-11T11:36:28.968Z,80
2017-11-11T11:37:28.990Z,85
2017-11-11T11:38:29.044Z,95
2017-11-11T11:39:28.681Z,105
2017-11-11T11:40:28.729Z,110
2017-11-11T11:41:29.042Z,110
2017-11-11T11:42:28.418Z,105
2017-11-11T11:43:28.418Z,115
2017-11-11T11:44:28.444Z,110
2017-11-11T11:45:28.779Z,110
2017-11-11T11:46:28.477Z,110
2017-11-11T11:47:28.823Z,105
2017-11-11T11:48:29.158Z,100
2017-11-11T11:49:29.176Z,95
2017-11-11T11:50:28.538Z,95
2017-11-11T11:51:29.190Z,90
2017-11-11T11:52:28.891Z,90
2017-11-11T11:53:28.907Z,90
2017-11-11T11:54:29.357Z,85
2017-11-11T11:55:28.944Z,80
2017-11-11T11:56:28.960Z,85
2017-11-11T11:57:29.287Z,85
2017-11-11T11:58:28.692Z,90
2017-11-11T11:59:29.000Z,85
2017-11-11T12:00:29.357Z,95
2017-11-11T12:01:29.389Z,100
2017-11-11T12:02:29.374Z,100
2017-11-11T12:03:29.385Z,90
2017-11-11T12:04:28.757Z,90
2017-11-11T12:05:28.778Z,95
2017-11-11T12:06:28.785Z,90
2017-11-11T12:07:29.127Z,80
2017-11-11T12:08:28.820Z,80
2017-11-11T12:09:29.206Z,80
2017-11-11T12:10:29.180Z,75
2017-11-11T12:11:29.201Z,65
2017-11-11T12:12:29.537Z,60
2017-11-11T12:13:29.241Z,65
2017-11-11T12:14:29.578Z,60
2017-11-11T12:15:29.257Z,65
2017-11-11T12:16:29.281Z,70
2017-11-11T12:17:28.973Z,70
2017-11-11T12:18:29.313Z,75
2017-11-11T12:19:29.325Z,80
2017-11-11T12:20:29.688Z,80
2017-11-11T12:21:29.356Z,80
2017-11-11T12:22:29.058Z,80
2017-11-11T12:23:29.080Z,80
2017-11-11T12:24:29.401Z,75
2017-11-11T12:25:29.798Z,85
2017-11-11T12:26:29.432Z,90
2017-11-11T12:27:29.467Z,85
2017-11-11T12:28:29.473Z,85
2017-11-11T12:29:28.840Z,85
2017-11-11T12:30:29.510Z,80
2017-11-11T12:31:29.194Z,85
2017-11-11T12:32:29.536Z,85
2017-11-11T12:33:29.572Z,80
2017-11-11T12:34:29.603Z,80
2017-11-11T12:35:29.917Z,80
2017-11-11T12:36:29.603Z,80
2017-11-11T12:37:29.294Z,80
2017-11-11T12:38:30.003Z,80
2017-11-11T12:39:29.687Z,80
2017-11-11T12:40:29.400Z,75
2017-11-11T12:41:29.367Z,75
2017-11-11T12:42:29.717Z,75
2017-11-11T12:43:29.706Z,70
2017-11-11T12:44:29.431Z,70
2017-11-11T12:45:29.420Z,75
2017-11-11T12:46:29.458Z,80
2017-11-11T12:47:29.463Z,75
2017-11-11T12:48:29.795Z,75
2017-11-11T12:49:30.136Z,80
2017-11-11T12:50:30.183Z,80
2017-11-11T12:51:29.857Z,80
2017-11-11T12:52:29.873Z,75
2017-11-11T12:53:30.199Z,75
2017-11-11T12:54:29.905Z,85
2017-11-11T12:55:29.982Z,80
2017-11-11T12:56:30.305Z,75
2017-11-11T12:57:29.617Z,80
2017-11-11T12:58:29.956Z,80
2017-11-11T12:59:29.970Z,75
2017-11-11T13:00:30.346Z,80
2017-11-11T13:01:30.069Z,80
2017-11-11T13:02:30.344Z,80
2017-11-11T13:03:30.371Z,80
2017-11-11T13:04:30.060Z,80
2017-11-11T13:05:30.399Z,75
2017-11-11T13:06:30.087Z,70
2017-11-11T13:07:29.773Z,60
2017-11-11T13:08:30.131Z,60
2017-11-11T13:09:30.454Z,60
2017-11-11T13:10:29.863Z,60
2017-11-11T13:11:30.169Z,60
2017-11-11T13:12:30.190Z,65
2017-11-11T13:13:30.193Z,65
2017-11-11T13:14:30.532Z,60
2017-11-11T13:15:29.591Z,65
2017-11-11T13:16:30.253Z,65
2017-11-11T13:17:30.270Z,65
2017-11-11T13:18:30.279Z,65
2017-11-11T13:19:30.616Z,65
2017-11-11T13:20:29.987Z,70
2017-11-11T13:21:30.006Z,65
2017-11-11T13:22:30.358Z,65
2017-11-11T13:23:30.367Z,70
2017-11-11T13:24:30.383Z,65
2017-11-11T13:25:30.425Z,70
2017-11-11T13:26:30.400Z,70
2017-11-11T13:27:30.421Z,65
2017-11-11T13:28:30.447Z,60
2017-11-11T13:29:30.779Z,55
2017-11-11T13:30:29.823Z,55
2017-11-11T13:31:30.863Z,55
2017-11-11T13:32:30.853Z,55
2017-11-11T13:33:30.521Z,55
2017-11-11T13:34:30.864Z,55
2017-11-11T13:35:30.870Z,55
2017-11-11T13:36:30.245Z,55
2017-11-11T13:37:30.259Z,55
2017-11-11T13:38:30.594Z,50
2017-11-11T13:39:30.295Z,55
2017-11-11T13:40:30.303Z,55
2017-11-11T13:41:30.649Z,55
2017-11-11T13:42:30.982Z,55
2017-11-11T13:43:30.682Z,55
2017-11-11T13:44:30.688Z,50
2017-11-11T13:45:31.061Z,50
2017-11-11T13:46:31.097Z,50
2017-11-11T13:47:30.090Z,45
2017-11-11T13:48:30.753Z,45
2017-11-11T13:49:31.109Z,45
2017-11-11T13:50:31.113Z,45
2017-11-11T13:51:30.798Z,40
2017-11-11T13:52:30.500Z,40
2017-11-11T13:53:31.158Z,35
2017-11-11T13:54:31.168Z,35
2017-11-11T13:55:30.210Z,35
2017-11-11T13:56:30.547Z,35
2017-11-11T13:57:30.889Z,35
2017-11-11T13:58:30.950Z,30
2017-11-11T13:59:31.242Z,30
2017-11-11T14:00:31.269Z,30
2017-11-11T14:01:31.306Z,30
2017-11-11T14:02:30.969Z,30
2017-11-11T14:03:31.313Z,30
2017-11-11T14:04:30.999Z,30
2017-11-11T14:05:31.061Z,30
2017-11-11T14:06:30.707Z,30
2017-11-11T14:07:31.372Z,30
2017-11-11T14:08:30.738Z,30
2017-11-11T14:09:31.076Z,35
2017-11-11T14:10:30.779Z,35
2017-11-11T14:11:31.112Z,30
2017-11-11T14:12:30.801Z,35
2017-11-11T14:13:30.819Z,35
2017-11-11T14:14:30.833Z,30
2017-11-11T14:15:31.505Z,30
2017-11-11T14:16:31.513Z,30
2017-11-11T14:17:31.196Z,30
2017-11-11T14:18:31.235Z,30
2017-11-11T14:19:30.905Z,30
2017-11-11T14:20:31.292Z,30
2017-11-11T14:21:30.945Z,25
2017-11-11T14:39:19.275Z,15
2017-11-11T14:40:18.894Z,15
2017-11-11T14:41:19.217Z,15